createdAt,value
2023-01-11T00:00:00.441Z,4.77
2023-01-11T00:05:02.141Z,4.81
2023-01-11T00:10:04.929Z,4.79
2023-01-11T00:15:16.267Z,4.83
2023-01-11T00:20:19.448Z,4.76
2023-01-11T00:25:21.124Z,4.67
2023-01-11T00:30:23.476Z,4.64
2023-01-11T00:35:26.590Z,4.67
2023-01-11T00:40:28.406Z,4.69
2023-01-11T00:45:48.902Z,4.75
2023-01-11T00:50:53.916Z,4.82
2023-01-11T00:55:55.676Z,4.82
2023-01-11T01:00:57.454Z,4.78
2023-01-11T01:05:59.078Z,4.74
2023-01-11T01:11:00.811Z,4.66
2023-01-11T01:16:02.467Z,4.71
2023-01-11T01:21:04.187Z,4.74
2023-01-11T01:26:06.830Z,4.75
2023-01-11T01:31:08.599Z,4.84
2023-01-11T01:36:10.702Z,4.96
2023-01-11T01:41:13.758Z,5.02
2023-01-11T01:46:16.566Z,4.98
2023-01-11T01:51:25.138Z,4.92
2023-01-11T01:56:33.676Z,4.88
2023-01-11T02:01:47.686Z,4.79
2023-01-11T02:06:53.076Z,4.70
2023-01-11T02:11:57.387Z,4.75
2023-01-11T02:16:59.061Z,4.86
2023-01-11T02:22:24.691Z,4.89
2023-01-11T02:27:48.294Z,4.86
2023-01-11T02:33:01.639Z,4.82
2023-01-11T02:38:10.329Z,4.86
2023-01-11T02:43:42.704Z,4.89
2023-01-11T02:48:57.778Z,4.76
2023-01-11T02:54:06.602Z,4.54
2023-01-11T02:59:17.068Z,4.50
2023-01-11T03:04:32.053Z,4.64
2023-01-11T03:09:59.673Z,4.74
2023-01-11T03:15:29.058Z,4.73
2023-01-11T03:20:38.440Z,4.67
2023-01-11T03:26:14.012Z,4.59
2023-01-11T03:31:39.140Z,4.43
2023-01-11T03:36:52.305Z,4.31
2023-01-11T03:41:58.210Z,4.26
2023-01-11T03:47:06.837Z,4.25
2023-01-11T03:52:12.643Z,4.17
2023-01-11T03:57:24.676Z,4.05
2023-01-11T04:02:33.400Z,4.03
2023-01-11T04:07:35.510Z,4.17
2023-01-11T04:12:37.619Z,4.27
2023-01-11T04:17:39.359Z,4.33
2023-01-11T04:22:41.058Z,4.39
2023-01-11T04:27:42.780Z,4.46
2023-01-11T04:32:44.396Z,4.48
2023-01-11T04:37:46.063Z,4.57
2023-01-11T04:42:47.775Z,4.63
2023-01-11T04:47:57.373Z,4.58
2023-01-11T04:52:59.525Z,4.57
2023-01-11T04:58:01.325Z,4.61
2023-01-11T05:03:03.108Z,4.61
2023-01-11T05:08:05.009Z,4.57
2023-01-11T05:13:06.706Z,4.50
2023-01-11T05:18:08.367Z,4.44
2023-01-11T05:23:10.156Z,4.40
2023-01-11T05:28:11.865Z,4.40
2023-01-11T05:33:13.593Z,4.43
2023-01-11T05:38:15.476Z,4.42
2023-01-11T05:43:17.156Z,4.35
2023-01-11T05:48:19.219Z,4.28
2023-01-11T05:53:22.931Z,4.26
2023-01-11T05:58:26.822Z,4.30
2023-01-11T06:03:28.585Z,4.38
2023-01-11T06:08:30.329Z,4.39
2023-01-11T06:13:33.774Z,4.26
2023-01-11T06:18:39.140Z,4.12
2023-01-11T06:23:44.267Z,3.99
2023-01-11T06:28:46.494Z,3.95
2023-01-11T06:33:48.197Z,3.97
2023-01-11T06:38:49.838Z,4.05
2023-01-11T06:43:51.615Z,4.08
2023-01-11T06:48:53.360Z,4.05
2023-01-11T06:53:55.055Z,4.04
2023-01-11T06:58:56.699Z,4.00
2023-01-11T07:03:58.486Z,3.95
2023-01-11T07:09:00.310Z,3.89
2023-01-11T07:14:01.999Z,3.80
2023-01-11T07:19:03.683Z,3.75
2023-01-11T07:24:05.692Z,3.78
2023-01-11T07:29:10.842Z,3.89
2023-01-11T07:34:12.619Z,4.01
2023-01-11T07:39:14.291Z,4.18
2023-01-11T07:44:16.244Z,4.31
2023-01-11T07:49:17.960Z,4.36
2023-01-11T07:54:19.996Z,4.56
2023-01-11T07:59:21.653Z,4.68
2023-01-11T08:09:42.766Z,4.77
2023-01-11T08:14:44.558Z,4.86
2023-01-11T08:19:46.307Z,4.87
2023-01-11T08:24:48.100Z,4.88
2023-01-11T08:29:49.956Z,4.91
2023-01-11T08:34:51.808Z,4.97
2023-01-11T08:39:55.957Z,5.03
2023-01-11T08:44:57.711Z,5.09
2023-01-11T08:49:59.544Z,5.17
2023-01-11T08:55:01.283Z,5.18
2023-01-11T09:00:07.570Z,5.19
2023-01-11T09:05:09.559Z,5.29
2023-01-11T09:10:11.439Z,5.35
2023-01-11T09:15:13.117Z,5.38
2023-01-11T09:20:15.153Z,5.37
2023-01-11T09:25:17.232Z,5.44
2023-01-11T09:30:21.748Z,5.53
2023-01-11T09:35:23.413Z,5.60
2023-01-11T09:41:04.823Z,5.60
2023-01-11T09:46:09.234Z,5.70
2023-01-11T09:51:15.951Z,5.85
2023-01-11T09:56:25.535Z,6.01
2023-01-11T10:01:49.551Z,6.16
2023-01-11T10:07:15.535Z,6.30
2023-01-11T10:18:43.435Z,6.72
2023-01-11T10:23:55.480Z,6.92
2023-01-11T10:29:16.473Z,7.10
2023-01-11T10:34:39.185Z,7.30
2023-01-11T10:40:23.838Z,7.35
2023-01-11T10:45:40.580Z,7.39
2023-01-11T10:51:05.042Z,7.40
2023-01-11T10:56:15.445Z,7.41
2023-01-11T11:01:51.515Z,7.45
2023-01-11T11:07:24.182Z,7.50
2023-01-11T11:12:31.000Z,7.52
2023-01-11T11:17:36.625Z,7.47
2023-01-11T11:22:38.256Z,7.39
2023-01-11T11:27:41.502Z,7.49
2023-01-11T11:33:10.896Z,7.72
2023-01-11T11:38:34.052Z,7.92
2023-01-11T11:43:38.064Z,7.93
2023-01-11T11:48:41.466Z,7.83
2023-01-11T11:53:51.683Z,7.77
2023-01-11T11:58:54.629Z,7.77
2023-01-11T12:04:01.196Z,7.85
2023-01-11T12:09:03.634Z,7.97
2023-01-11T12:14:11.280Z,8.09
2023-01-11T12:19:43.883Z,8.13
2023-01-11T12:24:47.643Z,8.00
2023-01-11T12:30:14.196Z,7.81
2023-01-11T12:35:40.746Z,7.80
2023-01-11T12:40:51.052Z,7.78
2023-01-11T12:46:22.835Z,7.68
2023-01-11T12:51:43.219Z,7.75
2023-01-11T12:57:13.099Z,7.69
2023-01-11T13:02:39.508Z,7.63
2023-01-11T13:07:59.370Z,7.59
2023-01-11T13:13:17.456Z,7.55
2023-01-11T13:18:29.689Z,7.44
2023-01-11T13:23:50.772Z,7.34
2023-01-11T13:29:02.927Z,7.35
2023-01-11T13:34:12.705Z,7.33
2023-01-11T13:39:28.509Z,7.26
2023-01-11T13:44:42.546Z,7.19
2023-01-11T13:49:44.349Z,7.13
2023-01-11T13:54:58.945Z,7.03
2023-01-11T14:00:18.597Z,6.96
2023-01-11T14:05:22.489Z,6.91
2023-01-11T14:10:54.588Z,6.77
2023-01-11T14:16:04.789Z,6.60
2023-01-11T14:21:28.540Z,6.51
2023-01-11T14:26:49.208Z,6.39
2023-01-11T14:32:39.417Z,6.27
2023-01-11T14:38:05.708Z,6.14
2023-01-11T14:43:33.710Z,5.98
2023-01-11T14:48:44.803Z,5.82
2023-01-11T14:54:10.610Z,5.71
2023-01-11T14:59:25.965Z,5.57
2023-01-11T15:04:27.820Z,5.44
2023-01-11T15:09:48.350Z,5.35
2023-01-11T15:14:55.394Z,5.21
2023-01-11T15:20:07.403Z,5.06
2023-01-11T15:25:31.798Z,4.94
2023-01-11T15:30:38.032Z,4.88
2023-01-11T15:35:39.758Z,4.88
2023-01-11T15:40:46.527Z,4.87
2023-01-11T15:46:27.858Z,4.84
2023-01-11T15:51:55.407Z,4.84
2023-01-11T15:57:12.257Z,4.84
2023-01-11T16:02:13.928Z,4.81
2023-01-11T16:07:40.432Z,4.79
2023-01-11T16:13:04.536Z,4.79
2023-01-11T16:18:16.807Z,4.78
2023-01-11T16:23:20.904Z,4.74
2023-01-11T16:28:23.213Z,4.69
2023-01-11T16:33:30.154Z,4.67
2023-01-11T16:38:40.758Z,4.62
2023-01-11T16:44:04.535Z,4.51
2023-01-11T16:49:10.614Z,4.51
2023-01-11T16:54:19.978Z,4.55
2023-01-11T16:59:26.767Z,4.53
2023-01-11T17:04:34.544Z,4.45
2023-01-11T17:09:36.205Z,4.42
2023-01-11T17:14:45.619Z,4.44
2023-01-11T17:19:49.753Z,4.45
2023-01-11T17:24:56.343Z,4.46
2023-01-11T17:29:59.077Z,4.53
2023-01-11T17:35:03.840Z,4.55
2023-01-11T17:40:17.820Z,4.54
2023-01-11T17:45:24.894Z,4.61
2023-01-11T17:50:39.525Z,4.69
2023-01-11T17:55:54.000Z,4.74
2023-01-11T18:01:05.141Z,4.80
2023-01-11T18:06:23.264Z,4.92
2023-01-11T18:11:28.285Z,5.00
2023-01-11T18:16:30.078Z,5.09
2023-01-11T18:21:52.842Z,5.16
2023-01-11T18:27:17.963Z,5.13
2023-01-11T18:32:20.912Z,5.09
2023-01-11T18:37:23.579Z,5.12
2023-01-11T18:42:30.210Z,5.13
2023-01-11T18:47:31.945Z,5.14
2023-01-11T18:52:33.945Z,5.15
2023-01-11T18:57:35.794Z,5.15
2023-01-11T19:02:43.342Z,5.23
2023-01-11T19:07:45.108Z,5.38
2023-01-11T19:12:47.399Z,5.52
2023-01-11T19:17:49.193Z,5.67
2023-01-11T19:22:51.103Z,5.77
2023-01-11T19:27:54.855Z,5.88
2023-01-11T19:32:56.810Z,5.97
2023-01-11T19:37:58.462Z,6.03
2023-01-11T19:43:00.184Z,6.09
2023-01-11T19:48:01.857Z,6.12
2023-01-11T19:53:03.753Z,6.11
2023-01-11T19:58:08.070Z,6.09
2023-01-11T20:03:09.965Z,6.04
2023-01-11T20:08:11.842Z,5.99
2023-01-11T20:13:13.637Z,5.99
2023-01-11T20:18:15.351Z,5.92
2023-01-11T20:23:17.047Z,5.88
2023-01-11T20:28:20.626Z,5.88
2023-01-11T20:33:22.539Z,5.88
2023-01-11T20:38:24.220Z,5.90
2023-01-11T20:43:26.087Z,5.91
2023-01-11T20:48:28.042Z,5.94
2023-01-11T20:53:30.051Z,5.99
2023-01-11T20:58:31.819Z,6.02
2023-01-11T21:03:33.508Z,6.07
2023-01-11T21:08:36.195Z,6.09
2023-01-11T21:13:38.433Z,6.11
2023-01-11T21:18:44.016Z,6.13
2023-01-11T21:23:47.526Z,6.13
2023-01-11T21:28:55.794Z,6.13
2023-01-11T21:33:58.285Z,6.13
2023-01-11T21:39:00.614Z,6.13
2023-01-11T21:44:02.340Z,6.13
2023-01-11T21:49:04.120Z,6.16
2023-01-11T21:54:09.815Z,6.19
2023-01-11T21:59:12.567Z,6.13
2023-01-11T22:04:16.242Z,6.10
2023-01-11T22:09:20.337Z,6.06
2023-01-11T22:14:24.171Z,5.98
2023-01-11T22:19:26.084Z,5.87
2023-01-11T22:24:27.834Z,5.76
2023-01-11T22:29:29.873Z,5.62
2023-01-11T22:34:39.235Z,5.49
2023-01-11T22:39:41.043Z,5.36
2023-01-11T22:44:42.713Z,5.22
2023-01-11T22:49:44.395Z,5.13
2023-01-11T22:54:46.050Z,5.06
2023-01-11T22:59:47.657Z,4.99
2023-01-11T23:04:49.297Z,4.96
2023-01-11T23:09:50.966Z,4.93
2023-01-11T23:14:54.254Z,4.89
2023-01-11T23:19:55.944Z,4.84
2023-01-11T23:24:57.679Z,4.81
2023-01-11T23:29:59.784Z,4.80
2023-01-11T23:35:01.609Z,4.78
2023-01-11T23:40:03.506Z,4.76
2023-01-11T23:45:08.604Z,4.76
2023-01-11T23:50:10.442Z,4.75
2023-01-11T23:55:13.908Z,4.73
